EST,Max TemperatureF,Mean TemperatureF,Min TemperatureF,Max Dew PointF,MeanDew PointF,Min DewpointF,Max Humidity, Mean Humidity, Min Humidity, Max Sea Level PressureIn, Mean Sea Level PressureIn, Min Sea Level PressureIn, Max VisibilityMiles, Mean VisibilityMiles, Min VisibilityMiles, Max Wind SpeedMPH, Mean Wind SpeedMPH, Max Gust SpeedMPH,PrecipitationIn, CloudCover, Events, WindDirDegrees
2013-11-1,53,50,46,54,43,38,86,76,66,29.71,29.55,29.31,10,10,6,24,12,41,T,8,Rain,251
2013-11-2,52,46,40,43,41,37,96,86,76,30.07,29.83,29.69,10,8,2,12,8,18,0.07,7,Rain,274
2013-11-3,50,44,37,40,37,33,92,77,61,30.36,30.27,30.08,10,10,5,12,6,16,0.01,6,Rain,87
2013-11-4,52,44,35,40,36,32,92,73,54,30.39,30.32,30.27,10,10,10,18,10,23,0.00,4,,137
2013-11-5,56,49,41,49,43,38,89,78,66,30.38,30.29,30.17,10,10,9,14,8,17,0.01,7,Rain,172
2013-11-6,57,50,43,52,46,39,93,76,59,30.14,30.00,29.88,10,9,4,28,15,36,0.16,8,Rain,232
2013-11-7,48,41,33,38,31,25,89,66,42,30.25,30.18,30.08,10,10,10,21,12,28,T,5,,279
2013-11-8,47,38,29,32,29,27,92,71,49,30.36,30.28,30.19,10,9,5,14,8,18,0.00,4,,240
2013-11-9,60,51,41,38,34,28,71,58,44,30.17,30.01,29.92,10,10,10,30,17,41,0.00,4,,231
2013-11-10,48,39,29,36,29,25,85,67,49,30.35,30.24,30.03,10,10,10,24,12,33,0.00,3,,271
2013-11-11,51,40,29,38,32,20,92,72,52,30.38,30.20,30.08,10,8,1,21,12,30,0.17,8,Rain-Snow,301
2013-11-12,36,29,22,23,20,17,84,72,59,30.63,30.56,30.39,10,10,10,16,8,21,T,3,,320
2013-11-13,38,29,19,20,18,16,91,68,44,30.61,30.51,30.31,10,10,10,20,11,25,0.00,3,,233
2013-11-14,52,40,28,22,20,18,75,51,27,30.29,30.18,30.08,10,10,10,24,15,32,0.00,3,,216
2013-11-15,50,43,36,32,26,22,76,59,42,30.10,30.08,30.04,10,10,10,18,10,21,0.00,7,,208
2013-11-16,58,48,37,54,44,33,92,85,77,30.08,29.99,29.80,10,9,6,25,13,31,0.01,7,Rain,164
2013-11-17,65,56,47,61,53,38,93,82,71,29.78,29.59,29.35,10,9,0,41,23,58,0.50,7,Fog-Rain-Thunderstorm,204
2013-11-18,47,40,32,38,32,27,82,68,53,30.21,29.96,29.72,10,10,10,28,15,37,0.00,4,,280
2013-11-19,43,36,28,26,25,22,78,64,49,30.39,30.34,30.22,10,10,10,13,6,17,0.00,5,,42
2013-11-20,45,34,23,34,27,20,88,71,53,30.40,30.32,30.22,10,10,10,16,8,20,T,6,Rain,108
2013-11-21,48,45,41,47,42,34,100,85,70,30.30,30.23,30.18,10,5,1,15,7,20,0.45,8,Rain,164
2013-11-22,48,38,28,47,39,24,100,85,70,30.43,30.26,30.16,10,6,1,21,9,26,0.08,7,Rain,301
2013-11-23,33,26,18,27,18,9,92,71,49,30.61,30.45,30.37,10,9,1,25,13,31,T,5,Snow,314
2013-11-24,27,21,14,16,12,9,88,72,55,30.70,30.62,30.51,10,10,10,16,7,20,T,4,,268
2013-11-25,32,24,16,25,16,10,80,65,49,30.50,30.30,30.18,10,10,4,21,12,25,T,7,Snow,214
2013-11-26,36,32,27,27,25,21,85,77,69,30.18,30.06,29.97,10,10,6,20,7,26,T,8,Snow,263
2013-11-27,30,27,23,21,17,13,88,69,50,30.28,30.11,29.99,10,9,2,21,12,26,T,6,Snow,303
2013-11-28,33,28,22,20,15,12,77,62,47,30.46,30.33,30.24,10,10,10,18,9,22,T,6,,232
2013-11-29,37,27,16,21,18,14,84,66,47,30.66,30.59,30.49,10,10,8,9,4,14,0.00,4,,145
2013-11-30,49,38,27,28,24,20,81,63,45,30.53,30.32,30.14,10,10,10,20,7,22,0.00,4,,181